Corona Kingdom — 7JYO — position and weather

sailwx.info

Track history (hours):
 
Tides and Currents Weather Stations Pressure Air Temp Water Temp Dewpoint Dewpoint Depression Visibility Wind Speed Wind Dir Waves Ship Positions

Corona Kingdom

Last reported at 2018-May-16 04:47 UTC. Time now 2018-May-25 18:55 UTC.
Position N 22°01' E 120°10'.
Warning: this ship's position is 9 days out of date.

Length 229 m; draft 8.2 m.

Type: Cargo ship. MMSI: 431400000.

Date/timePositionNaut miles runAvg speedWind from/ knotsBaromVisibWave heightAir tempDewpointWater temp
2018-May-16 04:47N 22°01' E 120°10'413.1
2018-May-16 04:30N 22°04' E 120°09'712.7
2018-May-16 03:55N 22°11' E 120°07'512.3
2018-May-16 03:30N 22°16' E 120°05'612.3
2018-May-16 03:01N 22°22' E 120°03'612.0
2018-May-16 02:30N 22°27' E 120°00'612.0
2018-May-16 02:00N 22°33' E 119°58'612.0
2018-May-16 01:30N 22°39' E 119°56'611.7
2018-May-16 01:00N 22°44' E 119°53'510.7
2018-May-16 00:30N 22°49' E 119°52'  
2018-May-13 00:29N 23°38' E 119°55'914.8
2018-May-12 23:54N 23°29' E 119°53'614.6
2018-May-12 23:29N 23°23' E 119°53'5013.3
2018-May-12 19:42N 22°33' E 119°51'1211.6
2018-May-12 18:38N 22°21' E 119°50'211.8
2018-May-12 18:30N 22°19' E 119°50'  
Track history (hours):
 
Tides and Currents Weather Stations Pressure Air Temp Water Temp Dewpoint Dewpoint Depression Visibility Wind Speed Wind Dir Waves Ship Positions

Corona Kingdom

Last reported at 2018-May-16 04:47 UTC. Time now 2018-May-25 18:55 UTC.
Position N 22°01' E 120°10'.
Warning: this ship's position is 9 days out of date.

Length 229 m; draft 8.2 m.

Type: Cargo ship. MMSI: 431400000.

Date/timePositionNaut miles runAvg speedWind from/ knotsBaromVisibWave heightAir tempDewpointWater temp
2018-May-16 04:47N 22°01' E 120°10'413.1
2018-May-16 04:30N 22°04' E 120°09'712.7
2018-May-16 03:55N 22°11' E 120°07'512.3
2018-May-16 03:30N 22°16' E 120°05'612.3
2018-May-16 03:01N 22°22' E 120°03'612.0
2018-May-16 02:30N 22°27' E 120°00'612.0
2018-May-16 02:00N 22°33' E 119°58'612.0
2018-May-16 01:30N 22°39' E 119°56'611.7
2018-May-16 01:00N 22°44' E 119°53'510.7
2018-May-16 00:30N 22°49' E 119°52'  
2018-May-13 00:29N 23°38' E 119°55'914.8
2018-May-12 23:54N 23°29' E 119°53'614.6
2018-May-12 23:29N 23°23' E 119°53'5013.3
2018-May-12 19:42N 22°33' E 119°51'1211.6
2018-May-12 18:38N 22°21' E 119°50'211.8
2018-May-12 18:30N 22°19' E 119°50'  

Dump ship's entire track history